sensor_id;sensor_type;location;lat;lon;timestamp;P1;durP1;ratioP1;P2;durP2;ratioP2
68054;SDS011;54841;43.616;1.460;2023-04-03T08:04:24;5.13;;;3.60;;
68054;SDS011;54841;43.616;1.460;2023-04-03T08:06:51;7.45;;;4.43;;
68054;SDS011;54841;43.616;1.460;2023-04-03T08:09:17;9.23;;;6.25;;
68054;SDS011;54841;43.616;1.460;2023-04-03T08:11:42;10.05;;;6.20;;
68054;SDS011;54841;43.616;1.460;2023-04-03T08:14:09;11.55;;;5.68;;
68054;SDS011;54841;43.616;1.460;2023-04-03T08:16:40;6.47;;;4.47;;
68054;SDS011;54841;43.616;1.460;2023-04-03T08:19:06;7.72;;;4.65;;
68054;SDS011;54841;43.616;1.460;2023-04-03T08:21:32;6.30;;;4.60;;
68054;SDS011;54841;43.616;1.460;2023-04-03T08:23:58;7.75;;;4.07;;
68054;SDS011;54841;43.616;1.460;2023-04-03T08:26:23;8.50;;;4.03;;
68054;SDS011;54841;43.616;1.460;2023-04-03T08:28:49;13.13;;;5.45;;
68054;SDS011;54841;43.616;1.460;2023-04-03T08:31:19;7.97;;;4.18;;
68054;SDS011;54841;43.616;1.460;2023-04-03T08:33:45;8.88;;;5.07;;
68054;SDS011;54841;43.616;1.460;2023-04-03T08:38:44;7.05;;;3.90;;
68054;SDS011;54841;43.616;1.460;2023-04-03T08:44:02;6.00;;;3.28;;
68054;SDS011;54841;43.616;1.460;2023-04-03T08:49:37;10.88;;;3.75;;
68054;SDS011;54841;43.616;1.460;2023-04-03T08:52:12;7.30;;;3.75;;
68054;SDS011;54841;43.616;1.460;2023-04-03T08:54:59;6.10;;;3.80;;
68054;SDS011;54841;43.616;1.460;2023-04-03T08:57:36;7.05;;;3.22;;
68054;SDS011;54841;43.616;1.460;2023-04-03T09:00:26;8.88;;;5.03;;
68054;SDS011;54841;43.616;1.460;2023-04-03T09:02:51;11.32;;;6.88;;
68054;SDS011;54841;43.616;1.460;2023-04-03T09:05:19;9.15;;;5.35;;
68054;SDS011;54841;43.616;1.460;2023-04-03T09:07:50;7.65;;;4.00;;
68054;SDS011;54841;43.616;1.460;2023-04-03T09:10:27;8.40;;;5.38;;
68054;SDS011;54841;43.616;1.460;2023-04-03T09:13:05;4.53;;;3.30;;
68054;SDS011;54841;43.616;1.460;2023-04-03T09:15:33;9.77;;;4.57;;
68054;SDS011;54841;43.616;1.460;2023-04-03T09:23:37;3.13;;;2.13;;
68054;SDS011;54841;43.616;1.460;2023-04-03T09:26:13;4.65;;;2.10;;
68054;SDS011;54841;43.616;1.460;2023-04-03T09:28:41;4.88;;;2.33;;
68054;SDS011;54841;43.616;1.460;2023-04-03T09:31:18;4.18;;;2.22;;
68054;SDS011;54841;43.616;1.460;2023-04-03T09:33:57;5.85;;;3.58;;
68054;SDS011;54841;43.616;1.460;2023-04-03T09:39:10;9.52;;;5.53;;
68054;SDS011;54841;43.616;1.460;2023-04-03T09:41:41;6.35;;;4.03;;
68054;SDS011;54841;43.616;1.460;2023-04-03T09:44:20;5.60;;;3.15;;
68054;SDS011;54841;43.616;1.460;2023-04-03T09:46:49;5.57;;;2.92;;
68054;SDS011;54841;43.616;1.460;2023-04-03T09:49:15;6.35;;;3.17;;
68054;SDS011;54841;43.616;1.460;2023-04-03T09:51:42;4.43;;;3.50;;
68054;SDS011;54841;43.616;1.460;2023-04-03T09:57:12;4.97;;;2.40;;
68054;SDS011;54841;43.616;1.460;2023-04-03T09:59:47;4.95;;;2.83;;
68054;SDS011;54841;43.616;1.460;2023-04-03T10:04:57;8.35;;;4.40;;
68054;SDS011;54841;43.616;1.460;2023-04-03T10:07:33;10.07;;;5.10;;
68054;SDS011;54841;43.616;1.460;2023-04-03T10:10:22;6.30;;;3.15;;
68054;SDS011;54841;43.616;1.460;2023-04-03T10:13:07;6.40;;;2.70;;
68054;SDS011;54841;43.616;1.460;2023-04-03T10:15:43;5.30;;;2.55;;
68054;SDS011;54841;43.616;1.460;2023-04-03T10:18:19;2.53;;;1.85;;
68054;SDS011;54841;43.616;1.460;2023-04-03T10:21:10;5.03;;;1.83;;
68054;SDS011;54841;43.616;1.460;2023-04-03T10:29:52;2.58;;;1.83;;
68054;SDS011;54841;43.616;1.460;2023-04-03T10:45:37;3.17;;;1.50;;
68054;SDS011;54841;43.616;1.460;2023-04-03T10:48:11;4.38;;;2.30;;
68054;SDS011;54841;43.616;1.460;2023-04-03T10:51:06;3.50;;;1.40;;
68054;SDS011;54841;43.616;1.460;2023-04-03T10:54:04;2.42;;;1.65;;
68054;SDS011;54841;43.616;1.460;2023-04-03T10:56:39;3.05;;;1.40;;
68054;SDS011;54841;43.616;1.460;2023-04-03T10:59:14;3.90;;;1.45;;
68054;SDS011;54841;43.616;1.460;2023-04-03T11:01:44;3.35;;;1.35;;
68054;SDS011;54841;43.616;1.460;2023-04-03T11:04:11;4.00;;;1.30;;
68054;SDS011;54841;43.616;1.460;2023-04-03T11:06:39;2.60;;;1.15;;
68054;SDS011;54841;43.616;1.460;2023-04-03T11:09:52;1.88;;;1.00;;
68054;SDS011;54841;43.616;1.460;2023-04-03T11:12:01;7.07;;;4.00;;
68054;SDS011;54841;43.616;1.460;2023-04-03T11:14:32;15.30;;;6.70;;
68054;SDS011;54841;43.616;1.460;2023-04-03T11:17:11;19.25;;;7.82;;
68054;SDS011;54841;43.616;1.460;2023-04-03T11:19:42;2.72;;;1.27;;
68054;SDS011;54841;43.616;1.460;2023-04-03T11:24:39;12.82;;;6.05;;
68054;SDS011;54841;43.616;1.460;2023-04-03T11:27:08;4.50;;;1.63;;
68054;SDS011;54841;43.616;1.460;2023-04-03T11:29:41;3.97;;;1.70;;
68054;SDS011;54841;43.616;1.460;2023-04-03T11:37:21;6.60;;;3.53;;
68054;SDS011;54841;43.616;1.460;2023-04-03T11:39:54;11.85;;;6.88;;
68054;SDS011;54841;43.616;1.460;2023-04-03T11:42:29;3.97;;;1.33;;
68054;SDS011;54841;43.616;1.460;2023-04-03T11:47:52;3.95;;;1.75;;
68054;SDS011;54841;43.616;1.460;2023-04-03T11:50:42;3.95;;;1.20;;
68054;SDS011;54841;43.616;1.460;2023-04-03T12:05:49;4.80;;;2.47;;
68054;SDS011;54841;43.616;1.460;2023-04-03T12:08:24;7.07;;;2.20;;
68054;SDS011;54841;43.616;1.460;2023-04-03T12:14:17;5.22;;;2.72;;
68054;SDS011;54841;43.616;1.460;2023-04-03T12:16:33;4.00;;;1.65;;
68054;SDS011;54841;43.616;1.460;2023-04-03T12:19:00;3.55;;;1.27;;
68054;SDS011;54841;43.616;1.460;2023-04-03T12:40:37;5.25;;;1.40;;
68054;SDS011;54841;43.616;1.460;2023-04-03T12:45:59;9.48;;;1.83;;
68054;SDS011;54841;43.616;1.460;2023-04-03T12:48:29;7.40;;;1.73;;
68054;SDS011;54841;43.616;1.460;2023-04-03T12:50:57;8.18;;;1.52;;
68054;SDS011;54841;43.616;1.460;2023-04-03T12:53:27;3.75;;;1.80;;
68054;SDS011;54841;43.616;1.460;2023-04-03T12:55:55;3.50;;;1.88;;
68054;SDS011;54841;43.616;1.460;2023-04-03T12:58:22;3.70;;;1.52;;
68054;SDS011;54841;43.616;1.460;2023-04-03T13:01:00;3.70;;;1.67;;
68054;SDS011;54841;43.616;1.460;2023-04-03T13:03:28;3.92;;;1.70;;
68054;SDS011;54841;43.616;1.460;2023-04-03T13:05:56;7.40;;;2.03;;
68054;SDS011;54841;43.616;1.460;2023-04-03T13:08:24;4.45;;;1.27;;
68054;SDS011;54841;43.616;1.460;2023-04-03T13:10:54;5.47;;;2.47;;
68054;SDS011;54841;43.616;1.460;2023-04-03T13:13:20;3.38;;;1.65;;
68054;SDS011;54841;43.616;1.460;2023-04-03T13:15:47;3.42;;;1.27;;
68054;SDS011;54841;43.616;1.460;2023-04-03T13:18:33;3.40;;;1.60;;
68054;SDS011;54841;43.616;1.460;2023-04-03T13:21:05;3.30;;;1.60;;
68054;SDS011;54841;43.616;1.460;2023-04-03T13:23:33;4.88;;;2.35;;
68054;SDS011;54841;43.616;1.460;2023-04-03T13:26:00;4.43;;;1.73;;
68054;SDS011;54841;43.616;1.460;2023-04-03T13:28:28;4.78;;;2.03;;
68054;SDS011;54841;43.616;1.460;2023-04-03T13:36:18;6.55;;;2.03;;
68054;SDS011;54841;43.616;1.460;2023-04-03T13:39:04;5.68;;;1.80;;
68054;SDS011;54841;43.616;1.460;2023-04-03T13:41:38;5.97;;;1.60;;
68054;SDS011;54841;43.616;1.460;2023-04-03T13:46:50;3.45;;;1.40;;
68054;SDS011;54841;43.616;1.460;2023-04-03T13:51:45;7.13;;;2.70;;
68054;SDS011;54841;43.616;1.460;2023-04-03T13:54:34;7.90;;;3.75;;
68054;SDS011;54841;43.616;1.460;2023-04-03T13:57:00;6.93;;;3.28;;
68054;SDS011;54841;43.616;1.460;2023-04-03T13:59:30;5.95;;;2.45;;
68054;SDS011;54841;43.616;1.460;2023-04-03T14:04:30;16.00;;;6.35;;
68054;SDS011;54841;43.616;1.460;2023-04-03T14:07:18;4.78;;;2.17;;
68054;SDS011;54841;43.616;1.460;2023-04-03T14:09:45;3.63;;;1.30;;
68054;SDS011;54841;43.616;1.460;2023-04-03T14:14:44;21.60;;;8.73;;
68054;SDS011;54841;43.616;1.460;2023-04-03T14:17:15;15.13;;;5.40;;
68054;SDS011;54841;43.616;1.460;2023-04-03T14:19:42;15.13;;;6.15;;
68054;SDS011;54841;43.616;1.460;2023-04-03T14:22:16;8.88;;;2.20;;
68054;SDS011;54841;43.616;1.460;2023-04-03T14:24:42;10.68;;;4.35;;
68054;SDS011;54841;43.616;1.460;2023-04-03T14:27:19;4.75;;;2.15;;
68054;SDS011;54841;43.616;1.460;2023-04-03T14:29:46;5.25;;;2.30;;
68054;SDS011;54841;43.616;1.460;2023-04-03T14:32:13;8.40;;;3.28;;
68054;SDS011;54841;43.616;1.460;2023-04-03T14:34:40;3.78;;;1.60;;
68054;SDS011;54841;43.616;1.460;2023-04-03T14:37:09;16.13;;;6.28;;
68054;SDS011;54841;43.616;1.460;2023-04-03T14:39:37;8.75;;;3.80;;
68054;SDS011;54841;43.616;1.460;2023-04-03T14:42:02;9.00;;;4.90;;
68054;SDS011;54841;43.616;1.460;2023-04-03T14:44:28;14.25;;;6.30;;
68054;SDS011;54841;43.616;1.460;2023-04-03T14:46:53;21.67;;;10.23;;
68054;SDS011;54841;43.616;1.460;2023-04-03T14:49:19;12.30;;;4.45;;
68054;SDS011;54841;43.616;1.460;2023-04-03T14:51:46;3.42;;;1.73;;
68054;SDS011;54841;43.616;1.460;2023-04-03T14:54:16;6.05;;;2.42;;
68054;SDS011;54841;43.616;1.460;2023-04-03T14:56:44;4.22;;;1.98;;
68054;SDS011;54841;43.616;1.460;2023-04-03T14:59:11;13.15;;;5.63;;
68054;SDS011;54841;43.616;1.460;2023-04-03T15:01:37;4.15;;;1.80;;
68054;SDS011;54841;43.616;1.460;2023-04-03T15:04:13;3.05;;;1.40;;
68054;SDS011;54841;43.616;1.460;2023-04-03T15:06:40;3.35;;;1.65;;
68054;SDS011;54841;43.616;1.460;2023-04-03T15:09:08;4.45;;;2.45;;
68054;SDS011;54841;43.616;1.460;2023-04-03T15:11:44;3.63;;;1.45;;
68054;SDS011;54841;43.616;1.460;2023-04-03T15:14:10;5.07;;;1.73;;
68054;SDS011;54841;43.616;1.460;2023-04-03T15:16:36;3.33;;;1.30;;
68054;SDS011;54841;43.616;1.460;2023-04-03T15:19:01;2.85;;;1.60;;
68054;SDS011;54841;43.616;1.460;2023-04-03T15:21:27;8.65;;;3.85;;
68054;SDS011;54841;43.616;1.460;2023-04-03T15:23:52;11.98;;;4.50;;
68054;SDS011;54841;43.616;1.460;2023-04-03T15:26:17;7.50;;;2.95;;
68054;SDS011;54841;43.616;1.460;2023-04-03T15:28:43;8.30;;;3.10;;
68054;SDS011;54841;43.616;1.460;2023-04-03T15:31:10;4.85;;;1.80;;
68054;SDS011;54841;43.616;1.460;2023-04-03T15:33:36;2.88;;;1.40;;
68054;SDS011;54841;43.616;1.460;2023-04-03T15:36:02;1.83;;;1.50;;
68054;SDS011;54841;43.616;1.460;2023-04-03T15:38:28;3.80;;;0.85;;
68054;SDS011;54841;43.616;1.460;2023-04-03T15:40:54;3.97;;;1.35;;
68054;SDS011;54841;43.616;1.460;2023-04-03T15:43:20;3.72;;;1.30;;
68054;SDS011;54841;43.616;1.460;2023-04-03T15:45:46;3.53;;;1.65;;
68054;SDS011;54841;43.616;1.460;2023-04-03T15:48:11;3.53;;;1.40;;
68054;SDS011;54841;43.616;1.460;2023-04-03T15:50:38;2.58;;;1.10;;
68054;SDS011;54841;43.616;1.460;2023-04-03T15:53:03;2.22;;;1.20;;
68054;SDS011;54841;43.616;1.460;2023-04-03T15:55:30;2.72;;;1.30;;
68054;SDS011;54841;43.616;1.460;2023-04-03T15:57:57;2.95;;;1.10;;
68054;SDS011;54841;43.616;1.460;2023-04-03T16:00:23;2.42;;;1.00;;
68054;SDS011;54841;43.616;1.460;2023-04-03T16:02:53;4.97;;;1.75;;
68054;SDS011;54841;43.616;1.460;2023-04-03T16:05:24;2.22;;;1.20;;
68054;SDS011;54841;43.616;1.460;2023-04-03T16:07:50;4.32;;;1.55;;
68054;SDS011;54841;43.616;1.460;2023-04-03T16:10:17;2.45;;;1.15;;
68054;SDS011;54841;43.616;1.460;2023-04-03T16:12:43;2.72;;;1.38;;
68054;SDS011;54841;43.616;1.460;2023-04-03T16:15:09;4.55;;;1.88;;
68054;SDS011;54841;43.616;1.460;2023-04-03T16:17:35;4.20;;;1.80;;
68054;SDS011;54841;43.616;1.460;2023-04-03T16:20:01;3.47;;;1.30;;
68054;SDS011;54841;43.616;1.460;2023-04-03T16:22:28;3.22;;;1.80;;
68054;SDS011;54841;43.616;1.460;2023-04-03T16:24:54;4.63;;;1.45;;
68054;SDS011;54841;43.616;1.460;2023-04-03T16:27:20;3.03;;;1.35;;
68054;SDS011;54841;43.616;1.460;2023-04-03T16:29:46;4.57;;;1.50;;
68054;SDS011;54841;43.616;1.460;2023-04-03T16:32:11;3.90;;;2.03;;
68054;SDS011;54841;43.616;1.460;2023-04-03T16:34:37;3.72;;;1.55;;
68054;SDS011;54841;43.616;1.460;2023-04-03T16:37:02;2.55;;;1.48;;
68054;SDS011;54841;43.616;1.460;2023-04-03T16:39:28;1.38;;;1.00;;
68054;SDS011;54841;43.616;1.460;2023-04-03T16:41:53;3.47;;;1.40;;
68054;SDS011;54841;43.616;1.460;2023-04-03T16:44:19;3.83;;;1.40;;
68054;SDS011;54841;43.616;1.460;2023-04-03T16:46:45;3.10;;;1.52;;
68054;SDS011;54841;43.616;1.460;2023-04-03T16:49:10;2.55;;;1.42;;
68054;SDS011;54841;43.616;1.460;2023-04-03T16:51:35;2.47;;;1.40;;
68054;SDS011;54841;43.616;1.460;2023-04-03T16:54:01;3.47;;;2.22;;
68054;SDS011;54841;43.616;1.460;2023-04-03T16:56:26;2.78;;;2.10;;
68054;SDS011;54841;43.616;1.460;2023-04-03T16:58:52;8.27;;;4.50;;
68054;SDS011;54841;43.616;1.460;2023-04-03T17:01:18;3.55;;;2.00;;
68054;SDS011;54841;43.616;1.460;2023-04-03T17:03:45;2.70;;;1.58;;
68054;SDS011;54841;43.616;1.460;2023-04-03T17:06:11;3.50;;;1.90;;
68054;SDS011;54841;43.616;1.460;2023-04-03T17:08:44;2.33;;;1.42;;
68054;SDS011;54841;43.616;1.460;2023-04-03T17:11:10;3.05;;;1.70;;
68054;SDS011;54841;43.616;1.460;2023-04-03T17:13:36;3.58;;;2.00;;
68054;SDS011;54841;43.616;1.460;2023-04-03T17:16:02;4.70;;;3.05;;
68054;SDS011;54841;43.616;1.460;2023-04-03T17:18:30;3.35;;;2.08;;
68054;SDS011;54841;43.616;1.460;2023-04-03T17:20:56;2.00;;;1.38;;
68054;SDS011;54841;43.616;1.460;2023-04-03T17:23:22;3.58;;;1.30;;
68054;SDS011;54841;43.616;1.460;2023-04-03T17:25:49;3.72;;;1.48;;
68054;SDS011;54841;43.616;1.460;2023-04-03T17:28:15;1.88;;;1.33;;
68054;SDS011;54841;43.616;1.460;2023-04-03T17:30:40;2.15;;;1.08;;
68054;SDS011;54841;43.616;1.460;2023-04-03T17:33:05;2.42;;;1.65;;
68054;SDS011;54841;43.616;1.460;2023-04-03T17:35:31;3.13;;;1.27;;
68054;SDS011;54841;43.616;1.460;2023-04-03T17:37:56;1.70;;;1.10;;
68054;SDS011;54841;43.616;1.460;2023-04-03T17:40:22;1.63;;;1.30;;
68054;SDS011;54841;43.616;1.460;2023-04-03T17:42:47;2.75;;;1.30;;
68054;SDS011;54841;43.616;1.460;2023-04-03T17:45:13;2.60;;;2.40;;
68054;SDS011;54841;43.616;1.460;2023-04-03T17:47:38;2.60;;;1.50;;
68054;SDS011;54841;43.616;1.460;2023-04-03T17:50:04;1.73;;;1.40;;
68054;SDS011;54841;43.616;1.460;2023-04-03T17:52:30;2.50;;;1.40;;
68054;SDS011;54841;43.616;1.460;2023-04-03T17:54:56;1.73;;;1.15;;
68054;SDS011;54841;43.616;1.460;2023-04-03T17:57:21;4.20;;;1.40;;
68054;SDS011;54841;43.616;1.460;2023-04-03T17:59:47;1.92;;;1.13;;
68054;SDS011;54841;43.616;1.460;2023-04-03T18:02:12;2.65;;;1.48;;
68054;SDS011;54841;43.616;1.460;2023-04-03T18:04:41;2.25;;;1.35;;
68054;SDS011;54841;43.616;1.460;2023-04-03T18:07:07;3.95;;;1.30;;
68054;SDS011;54841;43.616;1.460;2023-04-03T18:09:33;3.00;;;1.63;;
68054;SDS011;54841;43.616;1.460;2023-04-03T18:12:02;2.10;;;1.40;;
68054;SDS011;54841;43.616;1.460;2023-04-03T18:14:29;3.13;;;1.60;;
68054;SDS011;54841;43.616;1.460;2023-04-03T18:16:54;3.15;;;1.50;;
68054;SDS011;54841;43.616;1.460;2023-04-03T18:19:23;3.95;;;1.80;;
68054;SDS011;54841;43.616;1.460;2023-04-03T18:21:50;2.78;;;1.60;;
68054;SDS011;54841;43.616;1.460;2023-04-03T18:24:17;3.55;;;1.80;;
68054;SDS011;54841;43.616;1.460;2023-04-03T18:26:44;2.83;;;1.73;;
68054;SDS011;54841;43.616;1.460;2023-04-03T18:29:11;2.70;;;1.90;;
68054;SDS011;54841;43.616;1.460;2023-04-03T18:31:38;3.90;;;1.75;;
68054;SDS011;54841;43.616;1.460;2023-04-03T18:34:05;5.05;;;1.95;;
68054;SDS011;54841;43.616;1.460;2023-04-03T18:36:30;1.95;;;1.40;;
68054;SDS011;54841;43.616;1.460;2023-04-03T18:38:56;3.10;;;1.70;;
68054;SDS011;54841;43.616;1.460;2023-04-03T18:41:22;3.20;;;1.60;;
68054;SDS011;54841;43.616;1.460;2023-04-03T18:43:50;3.92;;;1.38;;
68054;SDS011;54841;43.616;1.460;2023-04-03T18:46:15;2.38;;;1.55;;
68054;SDS011;54841;43.616;1.460;2023-04-03T18:48:41;3.78;;;1.95;;
68054;SDS011;54841;43.616;1.460;2023-04-03T18:51:10;4.13;;;1.50;;
68054;SDS011;54841;43.616;1.460;2023-04-03T18:53:39;4.50;;;1.65;;
68054;SDS011;54841;43.616;1.460;2023-04-03T18:56:05;6.75;;;2.10;;
68054;SDS011;54841;43.616;1.460;2023-04-03T18:58:31;4.03;;;1.65;;
68054;SDS011;54841;43.616;1.460;2023-04-03T19:00:57;3.08;;;1.55;;
68054;SDS011;54841;43.616;1.460;2023-04-03T19:03:23;3.22;;;1.60;;
68054;SDS011;54841;43.616;1.460;2023-04-03T19:05:49;2.45;;;1.73;;
68054;SDS011;54841;43.616;1.460;2023-04-03T19:08:15;4.38;;;2.08;;
68054;SDS011;54841;43.616;1.460;2023-04-03T19:10:40;4.18;;;2.15;;
68054;SDS011;54841;43.616;1.460;2023-04-03T19:13:06;3.85;;;1.70;;
68054;SDS011;54841;43.616;1.460;2023-04-03T19:15:31;4.70;;;1.67;;
68054;SDS011;54841;43.616;1.460;2023-04-03T19:17:57;3.15;;;1.60;;
68054;SDS011;54841;43.616;1.460;2023-04-03T19:20:22;3.95;;;1.67;;
68054;SDS011;54841;43.616;1.460;2023-04-03T19:22:48;4.30;;;2.10;;
68054;SDS011;54841;43.616;1.460;2023-04-03T19:25:13;3.25;;;1.83;;
68054;SDS011;54841;43.616;1.460;2023-04-03T19:27:39;2.92;;;2.05;;
68054;SDS011;54841;43.616;1.460;2023-04-03T19:30:06;3.85;;;1.80;;
68054;SDS011;54841;43.616;1.460;2023-04-03T19:32:32;3.85;;;1.88;;
68054;SDS011;54841;43.616;1.460;2023-04-03T19:34:58;2.83;;;1.52;;
68054;SDS011;54841;43.616;1.460;2023-04-03T19:37:24;4.28;;;2.30;;
68054;SDS011;54841;43.616;1.460;2023-04-03T19:39:50;4.10;;;1.83;;
68054;SDS011;54841;43.616;1.460;2023-04-03T19:42:16;3.67;;;2.28;;
68054;SDS011;54841;43.616;1.460;2023-04-03T19:44:43;3.83;;;2.00;;
68054;SDS011;54841;43.616;1.460;2023-04-03T19:47:08;4.70;;;2.05;;
68054;SDS011;54841;43.616;1.460;2023-04-03T19:49:34;4.55;;;2.20;;
68054;SDS011;54841;43.616;1.460;2023-04-03T19:52:00;6.07;;;2.35;;
68054;SDS011;54841;43.616;1.460;2023-04-03T19:54:25;3.65;;;2.05;;
68054;SDS011;54841;43.616;1.460;2023-04-03T19:56:51;3.40;;;1.90;;
68054;SDS011;54841;43.616;1.460;2023-04-03T19:59:16;3.47;;;1.83;;
68054;SDS011;54841;43.616;1.460;2023-04-03T20:01:42;4.22;;;1.90;;
68054;SDS011;54841;43.616;1.460;2023-04-03T20:04:07;3.50;;;1.90;;
68054;SDS011;54841;43.616;1.460;2023-04-03T20:06:33;4.38;;;1.88;;
68054;SDS011;54841;43.616;1.460;2023-04-03T20:08:58;5.43;;;2.33;;
68054;SDS011;54841;43.616;1.460;2023-04-03T20:11:24;3.40;;;2.17;;
68054;SDS011;54841;43.616;1.460;2023-04-03T20:13:51;3.05;;;2.10;;
68054;SDS011;54841;43.616;1.460;2023-04-03T20:16:18;4.15;;;1.92;;
68054;SDS011;54841;43.616;1.460;2023-04-03T20:18:46;2.53;;;1.90;;
68054;SDS011;54841;43.616;1.460;2023-04-03T20:21:11;4.43;;;2.28;;
68054;SDS011;54841;43.616;1.460;2023-04-03T20:23:37;6.07;;;2.00;;
68054;SDS011;54841;43.616;1.460;2023-04-03T20:26:05;3.67;;;2.08;;
68054;SDS011;54841;43.616;1.460;2023-04-03T20:28:32;4.45;;;2.08;;
68054;SDS011;54841;43.616;1.460;2023-04-03T20:30:58;5.10;;;2.65;;
68054;SDS011;54841;43.616;1.460;2023-04-03T20:33:25;4.60;;;2.30;;
68054;SDS011;54841;43.616;1.460;2023-04-03T20:35:51;3.50;;;2.15;;
68054;SDS011;54841;43.616;1.460;2023-04-03T20:38:17;3.75;;;2.22;;
68054;SDS011;54841;43.616;1.460;2023-04-03T20:40:43;4.20;;;2.35;;
68054;SDS011;54841;43.616;1.460;2023-04-03T20:43:09;2.88;;;2.20;;
68054;SDS011;54841;43.616;1.460;2023-04-03T20:45:34;2.58;;;1.80;;
68054;SDS011;54841;43.616;1.460;2023-04-03T20:48:00;3.47;;;2.00;;
68054;SDS011;54841;43.616;1.460;2023-04-03T20:50:28;4.00;;;2.33;;
68054;SDS011;54841;43.616;1.460;2023-04-03T20:52:54;5.82;;;3.35;;
68054;SDS011;54841;43.616;1.460;2023-04-03T20:55:21;5.75;;;3.75;;
68054;SDS011;54841;43.616;1.460;2023-04-03T20:57:47;17.40;;;10.63;;
68054;SDS011;54841;43.616;1.460;2023-04-03T21:00:13;11.55;;;6.55;;
68054;SDS011;54841;43.616;1.460;2023-04-03T21:02:39;13.43;;;8.70;;
68054;SDS011;54841;43.616;1.460;2023-04-03T21:05:06;9.52;;;6.72;;
